Pagina principale
METAR-TAF:

METAR-TAF

Aeroporti :

Aeroporto di Comiso

Comiso, Italia

latitudine: 36-59-30N, longitudine: 14-36-25E, altezza: 190 m

Osservazione

Il bollettino è stato emesso 32 minuti fa, alle 05:20 UTC
Vento 3 kt da nord/nord-est, variando fra nord/nord-ovest e est
Temperature 26°C
Umidità 42%
Pressione 1015 hPa
Visibilità 10 km o più

METAR: LICB 030520Z AUTO 03003KT 330V090 9999 NCD 26/12 Q1015

Ora: 07:52 (05:52 UTC)

Previsione

Il bollettino è stato emesso 52 minuti fa, alle 05:00 UTC
Previsione valida dal 03 alle 06 UTC al 04 alle 06 UTC
Vento 4 kt da direzioni variabili
Visibilità 10 km o più
nessuna nube inferiore a 1500 m e nessun cumulonembo
Evoluzione graduale
dal 03 alle 09 UTC al 03 alle 11 UTC
Vento 12 kt da ovest/sud-ovest
Evoluzione graduale
dal 03 alle 18 UTC al 03 alle 20 UTC
Vento 5 kt da direzioni variabili

TAF: LICB 030500Z 0306/0406 VRB04KT CAVOK BECMG 0309/0311 25012KT BECMG 0318/0320 VRB05KT

Osservazioni e previsioni meteorologiche di più di 4000 aeroporti (messaggi METAR e TAF).

Le stazioni disponibili sono rappresentate dai dischi gialli e rossi sulla carta.

Puntare il mouse per vedere il nome della stazione.

Clicca sopra per visualizzare le osservazioni e previsioni meteorologiche.

Per cambiare la mappa : fare clic sui pulsanti verdi con una croce nera per ingrandire, il pulsante verde con un trattino per diminuire, o sulla freccia verde per le mappe adiacenti.


METAR-TAF: